Time;durP1;ratioP1;P1;durP2;ratioP2;P2;SDS_P1;SDS_P2;PMS_P1;PMS_P2;Temp;Humidity;BMP_temperature;BMP_pressure;BME280_temperature;BME280_humidity;BME280_pressure;Samples;Min_cycle;Max_cycle;Signal;HPM_P1;HPM_P2
2023/04/09 00:02:25;;;;;;;8.93;7.67;;;12.80;99.90;;;;;;5015187;28;20239;-65
2023/04/09 00:04:51;;;;;;;10.50;8.33;;;12.90;99.90;;;;;;5018266;28;20427;-66
2023/04/09 00:07:16;;;;;;;8.80;7.90;;;12.80;99.90;;;;;;5017483;28;20180;-65
2023/04/09 00:09:42;;;;;;;9.13;8.23;;;12.80;99.90;;;;;;5013123;28;20916;-66
2023/04/09 00:12:08;;;;;;;9.13;8.23;;;12.80;99.90;;;;;;5016322;28;20264;-66
2023/04/09 00:14:33;;;;;;;8.67;7.73;;;12.80;99.90;;;;;;5015985;28;20177;-66
2023/04/09 00:16:59;;;;;;;8.33;7.37;;;12.80;99.90;;;;;;5011101;28;20177;-66
2023/04/09 00:19:24;;;;;;;8.20;7.33;;;12.70;99.90;;;;;;5019197;28;20224;-66
2023/04/09 00:21:51;;;;;;;8.83;7.93;;;12.70;99.90;;;;;;5012832;28;21652;-66
2023/04/09 00:24:17;;;;;;;9.53;8.20;;;12.70;99.90;;;;;;5010555;28;20216;-66
2023/04/09 00:26:42;;;;;;;9.20;8.23;;;12.70;99.90;;;;;;5008059;28;20439;-66
2023/04/09 00:29:08;;;;;;;9.20;8.00;;;12.70;99.90;;;;;;5013614;28;20185;-66
2023/04/09 00:31:33;;;;;;;10.53;9.10;;;12.70;99.90;;;;;;5014820;28;20207;-66
2023/04/09 00:33:59;;;;;;;8.93;7.30;;;12.60;99.90;;;;;;5019020;28;20345;-66
2023/04/09 00:36:25;;;;;;;8.40;7.17;;;12.60;99.90;;;;;;5016040;28;20352;-66
2023/04/09 00:38:52;;;;;;;11.90;8.70;;;12.60;99.90;;;;;;5021230;28;22248;-66
2023/04/09 00:41:18;;;;;;;9.43;7.70;;;12.50;99.90;;;;;;5018960;28;20221;-66
2023/04/09 00:43:43;;;;;;;8.27;7.47;;;12.50;99.90;;;;;;5017623;28;21001;-66
2023/04/09 00:46:09;;;;;;;9.30;7.70;;;12.50;99.90;;;;;;5019591;28;20587;-66
2023/04/09 00:48:35;;;;;;;8.63;7.80;;;12.50;99.90;;;;;;5021419;28;20210;-66
2023/04/09 00:51:00;;;;;;;8.67;7.77;;;12.50;99.90;;;;;;5018206;28;20559;-66
2023/04/09 00:53:26;;;;;;;9.77;8.73;;;12.50;99.90;;;;;;5018842;28;21892;-66
2023/04/09 00:55:53;;;;;;;9.07;8.00;;;12.50;99.90;;;;;;5019630;28;21837;-66
2023/04/09 00:58:19;;;;;;;10.67;8.10;;;12.50;99.90;;;;;;5008929;28;20172;-66
2023/04/09 01:00:45;;;;;;;9.37;7.73;;;12.40;99.90;;;;;;5009720;28;20451;-66
2023/04/09 01:03:11;;;;;;;9.00;8.10;;;12.40;99.90;;;;;;5021527;28;20205;-66
2023/04/09 01:05:52;;;;;;;9.40;8.37;;;12.40;99.90;;;;;;5016690;28;20173;-66
2023/04/09 01:08:26;;;;;;;9.20;7.80;;;12.40;99.90;;;;;;5017305;28;20435;-66
2023/04/09 01:11:16;;;;;;;11.73;8.30;;;12.40;99.90;;;;;;5010931;28;20476;-66
2023/04/09 01:13:56;;;;;;;8.57;7.60;;;12.40;99.90;;;;;;5011029;28;20438;-66
2023/04/09 01:16:22;;;;;;;10.87;8.70;;;12.40;99.90;;;;;;5016680;28;20466;-66
2023/04/09 01:19:00;;;;;;;10.77;8.13;;;12.40;99.90;;;;;;5016243;28;20436;-66
2023/04/09 01:21:30;;;;;;;10.63;8.50;;;12.40;99.90;;;;;;5014903;28;20460;-66
2023/04/09 01:24:11;;;;;;;11.93;9.07;;;12.30;99.90;;;;;;5013305;28;20462;-66
2023/04/09 01:26:58;;;;;;;10.60;8.47;;;12.30;99.90;;;;;;5008346;28;20777;-66
2023/04/09 01:29:25;;;;;;;9.90;8.50;;;12.30;99.90;;;;;;5009302;28;20900;-66
2023/04/09 01:31:52;;;;;;;11.03;8.97;;;12.30;99.90;;;;;;5008802;28;20880;-66
2023/04/09 01:34:20;;;;;;;11.10;9.10;;;12.30;99.90;;;;;;5030244;28;20515;-66
2023/04/09 01:36:54;;;;;;;10.10;8.87;;;12.30;99.90;;;;;;5014948;28;20589;-66
2023/04/09 01:39:20;;;;;;;10.97;8.50;;;12.30;99.90;;;;;;5011499;28;20466;-66
2023/04/09 01:41:47;;;;;;;10.47;7.93;;;12.30;99.90;;;;;;5011418;28;20463;-66
2023/04/09 01:44:14;;;;;;;10.60;8.03;;;12.20;99.90;;;;;;5015559;28;20460;-66
2023/04/09 01:46:40;;;;;;;9.90;7.77;;;12.30;99.90;;;;;;5013583;28;20450;-66
2023/04/09 01:49:08;;;;;;;12.97;8.87;;;12.30;99.90;;;;;;5018988;28;20431;-66
2023/04/09 01:51:34;;;;;;;10.07;9.00;;;12.30;99.90;;;;;;5013948;28;20470;-66
2023/04/09 01:54:00;;;;;;;10.20;8.37;;;12.20;99.90;;;;;;5013722;28;20542;-66
2023/04/09 01:56:26;;;;;;;11.70;8.83;;;12.20;99.90;;;;;;5017844;28;20840;-66
2023/04/09 01:58:51;;;;;;;9.17;7.43;;;12.20;99.90;;;;;;5016855;28;20420;-66
2023/04/09 02:01:26;;;;;;;13.30;9.20;;;12.20;99.90;;;;;;5016724;28;20224;-66
2023/04/09 02:03:57;;;;;;;10.53;8.50;;;12.20;99.90;;;;;;5012510;28;20260;-66
2023/04/09 02:06:37;;;;;;;12.73;8.70;;;12.10;99.90;;;;;;5013866;28;20439;-65
2023/04/09 02:09:08;;;;;;;10.87;8.67;;;12.10;99.90;;;;;;5013622;28;20981;-66
2023/04/09 02:11:36;;;;;;;10.73;8.97;;;12.10;99.90;;;;;;5012973;28;20447;-66
2023/04/09 02:14:03;;;;;;;13.47;9.27;;;12.10;99.90;;;;;;5013054;28;20427;-66
2023/04/09 02:16:31;;;;;;;12.33;9.43;;;12.10;99.90;;;;;;5011102;28;20995;-66
2023/04/09 02:18:56;;;;;;;13.20;9.70;;;12.10;99.90;;;;;;5007330;28;20492;-66
2023/04/09 02:21:23;;;;;;;11.10;8.23;;;12.10;99.90;;;;;;5011567;28;20977;-66
2023/04/09 02:23:49;;;;;;;9.73;8.13;;;12.10;99.90;;;;;;5013175;28;20265;-65
2023/04/09 02:26:14;;;;;;;11.90;8.43;;;12.10;99.90;;;;;;5010889;28;21026;-66
2023/04/09 02:28:40;;;;;;;8.87;7.97;;;12.10;99.90;;;;;;5013853;28;20435;-66
2023/04/09 02:31:06;;;;;;;12.30;8.20;;;12.10;99.90;;;;;;5010140;28;20217;-66
2023/04/09 02:33:31;;;;;;;10.73;8.90;;;12.10;99.90;;;;;;5009424;28;20196;-66
2023/04/09 02:35:57;;;;;;;10.03;8.53;;;12.10;99.90;;;;;;5013406;28;20234;-66
2023/04/09 02:38:23;;;;;;;9.57;7.77;;;12.00;99.90;;;;;;5015791;28;20189;-66
2023/04/09 02:40:49;;;;;;;10.10;8.70;;;12.00;99.90;;;;;;5007894;28;20670;-66
2023/04/09 02:43:14;;;;;;;9.10;8.07;;;12.00;99.90;;;;;;5013215;28;20537;-66
2023/04/09 02:45:40;;;;;;;11.13;8.30;;;12.00;99.90;;;;;;5017953;28;20184;-66
2023/04/09 02:48:05;;;;;;;11.40;9.00;;;11.90;99.90;;;;;;5014477;28;20193;-66
2023/04/09 02:50:31;;;;;;;10.00;8.30;;;12.00;99.90;;;;;;5015142;28;20216;-66
2023/04/09 02:52:57;;;;;;;14.50;9.60;;;12.00;99.90;;;;;;5016688;28;20267;-66
2023/04/09 02:55:22;;;;;;;8.73;7.77;;;12.00;99.90;;;;;;5013296;28;20184;-66
2023/04/09 02:57:48;;;;;;;11.87;9.57;;;11.90;99.90;;;;;;5015313;28;20674;-66
2023/04/09 03:00:13;;;;;;;12.03;10.03;;;11.90;99.90;;;;;;5014848;28;20208;-66
2023/04/09 03:02:39;;;;;;;11.50;8.33;;;11.90;99.90;;;;;;5014822;28;20208;-66
2023/04/09 03:05:05;;;;;;;10.23;8.70;;;11.90;99.90;;;;;;5014377;28;20188;-66
2023/04/09 03:07:31;;;;;;;13.67;9.33;;;11.90;99.90;;;;;;5022245;28;20188;-66
2023/04/09 03:09:56;;;;;;;13.13;9.50;;;11.90;99.90;;;;;;5013812;28;20896;-66
2023/04/09 03:12:22;;;;;;;13.10;10.07;;;11.90;99.90;;;;;;5010214;28;20181;-66
2023/04/09 03:14:47;;;;;;;12.67;9.33;;;11.90;99.90;;;;;;5013949;28;20666;-66
2023/04/09 03:17:13;;;;;;;11.30;9.60;;;11.90;99.90;;;;;;5016834;28;20188;-66
2023/04/09 03:19:39;;;;;;;11.80;8.83;;;11.80;99.90;;;;;;5018633;28;20974;-66
2023/04/09 03:22:04;;;;;;;12.77;9.60;;;11.80;99.90;;;;;;5015477;28;20189;-67
2023/04/09 03:24:33;;;;;;;13.70;9.03;;;11.80;99.90;;;;;;5013241;28;21411;-66
2023/04/09 03:26:58;;;;;;;12.10;8.90;;;11.80;99.90;;;;;;5014748;28;20189;-66
2023/04/09 03:29:24;;;;;;;13.30;9.30;;;11.80;99.90;;;;;;5014175;28;20849;-66
2023/04/09 03:31:50;;;;;;;11.73;9.30;;;11.80;99.90;;;;;;5009099;28;20280;-66
2023/04/09 03:34:16;;;;;;;11.53;8.87;;;11.80;99.90;;;;;;5022317;28;20446;-66
2023/04/09 03:36:41;;;;;;;10.10;7.80;;;11.80;99.90;;;;;;5018842;28;20242;-66
2023/04/09 03:39:07;;;;;;;13.17;10.53;;;11.80;99.90;;;;;;5021392;28;20228;-66
2023/04/09 03:41:32;;;;;;;10.13;8.87;;;11.70;99.90;;;;;;5016224;28;20220;-67
2023/04/09 03:43:58;;;;;;;10.90;8.80;;;11.70;99.90;;;;;;5011737;28;20204;-66
2023/04/09 03:46:24;;;;;;;12.03;9.03;;;11.70;99.90;;;;;;5019475;28;20271;-66
2023/04/09 03:48:50;;;;;;;12.03;9.63;;;11.70;99.90;;;;;;5015531;28;20189;-66
2023/04/09 03:51:16;;;;;;;11.10;9.00;;;11.70;99.90;;;;;;5014591;28;20627;-66
2023/04/09 03:53:42;;;;;;;11.60;9.40;;;11.70;99.90;;;;;;5014666;28;20444;-66
2023/04/09 03:56:09;;;;;;;16.07;9.43;;;11.60;99.90;;;;;;5014873;28;20436;-66
2023/04/09 03:58:35;;;;;;;12.30;9.40;;;11.60;99.90;;;;;;5016821;28;20172;-66
2023/04/09 04:01:00;;;;;;;14.00;9.10;;;11.60;99.90;;;;;;5016247;28;20495;-66
2023/04/09 04:03:27;;;;;;;12.07;9.50;;;11.60;99.90;;;;;;5014589;28;21165;-66
2023/04/09 04:05:52;;;;;;;12.50;10.40;;;11.50;99.90;;;;;;5020954;28;20208;-66
2023/04/09 04:08:18;;;;;;;13.07;9.90;;;11.50;99.90;;;;;;5019279;28;20499;-66
2023/04/09 04:10:44;;;;;;;14.43;10.63;;;11.50;99.90;;;;;;5013228;28;20685;-66
2023/04/09 04:13:09;;;;;;;14.03;10.33;;;11.50;99.90;;;;;;5015522;28;20188;-66
2023/04/09 04:15:40;;;;;;;13.90;10.23;;;11.40;99.90;;;;;;5021797;28;20180;-65
2023/04/09 04:18:05;;;;;;;15.97;11.33;;;11.40;99.90;;;;;;5021348;28;20674;-66
2023/04/09 04:20:35;;;;;;;14.07;10.23;;;11.30;99.90;;;;;;5022535;28;20546;-66
2023/04/09 04:23:01;;;;;;;12.47;9.83;;;11.20;99.90;;;;;;5015768;28;20232;-66
2023/04/09 04:25:27;;;;;;;14.57;10.77;;;11.20;99.90;;;;;;5012027;28;22437;-66
2023/04/09 04:27:53;;;;;;;12.80;10.43;;;11.20;99.90;;;;;;5014406;28;20212;-66
2023/04/09 04:30:20;;;;;;;14.67;10.77;;;11.20;99.90;;;;;;5013616;28;20332;-66
2023/04/09 04:32:46;;;;;;;12.10;10.37;;;11.20;99.90;;;;;;5013129;28;20895;-65
2023/04/09 04:35:12;;;;;;;14.73;11.00;;;11.20;99.90;;;;;;5012327;28;20438;-65
2023/04/09 04:37:39;;;;;;;13.00;9.93;;;11.10;99.90;;;;;;5015689;28;20945;-65
2023/04/09 04:40:05;;;;;;;17.30;11.70;;;11.10;99.90;;;;;;5012623;28;20235;-65
2023/04/09 04:42:31;;;;;;;16.00;10.60;;;11.00;99.90;;;;;;5008829;28;21183;-65
2023/04/09 04:44:56;;;;;;;14.70;10.43;;;11.00;99.90;;;;;;5013818;28;20478;-65
2023/04/09 04:47:22;;;;;;;14.77;10.83;;;10.90;99.90;;;;;;5018294;28;20181;-65
2023/04/09 04:49:47;;;;;;;14.30;11.93;;;10.90;99.90;;;;;;5017934;28;20180;-65
2023/04/09 04:52:13;;;;;;;14.93;11.40;;;10.80;99.90;;;;;;5014043;28;20241;-65
2023/04/09 04:54:39;;;;;;;15.87;11.10;;;10.80;99.90;;;;;;5017895;28;20203;-65
2023/04/09 04:57:04;;;;;;;15.53;11.07;;;10.80;99.90;;;;;;5011600;28;20182;-65
2023/04/09 04:59:30;;;;;;;19.07;12.87;;;10.70;99.90;;;;;;5015536;28;20523;-65
2023/04/09 05:01:56;;;;;;;14.10;10.80;;;10.70;99.90;;;;;;5014965;28;20733;-65
2023/04/09 05:04:21;;;;;;;18.50;12.27;;;10.70;99.90;;;;;;5014657;28;20216;-65
2023/04/09 05:06:47;;;;;;;14.50;9.93;;;10.60;99.90;;;;;;5013097;28;20181;-65
2023/04/09 05:09:13;;;;;;;15.33;10.53;;;10.60;99.90;;;;;;5010115;28;20185;-65
2023/04/09 05:11:38;;;;;;;13.87;10.37;;;10.60;99.90;;;;;;5009292;28;20193;-65
2023/04/09 05:14:05;;;;;;;19.23;11.87;;;10.60;99.90;;;;;;5014521;28;20597;-66
2023/04/09 05:16:30;;;;;;;16.03;11.80;;;10.60;99.90;;;;;;5015334;28;20263;-65
2023/04/09 05:18:56;;;;;;;15.97;10.97;;;10.50;99.90;;;;;;5016814;28;20936;-65
2023/04/09 05:21:22;;;;;;;14.60;10.10;;;10.50;99.90;;;;;;5011469;28;20211;-65
2023/04/09 05:23:48;;;;;;;14.47;10.43;;;10.50;99.90;;;;;;5014269;28;20210;-65
2023/04/09 05:26:13;;;;;;;14.83;11.10;;;10.50;99.90;;;;;;5010945;28;20230;-65
2023/04/09 05:28:39;;;;;;;18.20;11.30;;;10.40;99.90;;;;;;5012727;28;20537;-65
2023/04/09 05:31:10;;;;;;;15.10;10.23;;;10.40;99.90;;;;;;5017309;28;20212;-65
2023/04/09 05:33:37;;;;;;;14.10;10.80;;;10.40;99.90;;;;;;5017468;28;20536;-65
2023/04/09 05:36:03;;;;;;;14.10;10.27;;;10.40;99.90;;;;;;5009900;28;20992;-65
2023/04/09 05:38:28;;;;;;;12.83;9.47;;;10.40;99.90;;;;;;5009070;28;20443;-65
2023/04/09 05:40:54;;;;;;;16.43;11.73;;;10.40;99.90;;;;;;5013242;28;20964;-65
2023/04/09 05:43:19;;;;;;;15.80;11.13;;;10.40;99.90;;;;;;5006013;28;20209;-66
2023/04/09 05:45:45;;;;;;;13.97;10.60;;;10.30;99.90;;;;;;5010356;28;20647;-65
2023/04/09 05:48:11;;;;;;;18.57;12.70;;;10.30;99.90;;;;;;5011407;28;20188;-65
2023/04/09 05:50:37;;;;;;;16.40;11.00;;;10.30;99.90;;;;;;5016550;28;20741;-65
2023/04/09 05:53:02;;;;;;;16.70;11.70;;;10.30;99.90;;;;;;5007887;28;20471;-66
2023/04/09 05:55:29;;;;;;;14.93;10.63;;;10.30;99.90;;;;;;5011346;28;21018;-65
2023/04/09 05:57:56;;;;;;;15.20;10.97;;;10.20;99.90;;;;;;5015163;28;20540;-66
2023/04/09 06:00:21;;;;;;;17.10;12.77;;;10.20;99.90;;;;;;5015409;28;20460;-66
2023/04/09 06:02:47;;;;;;;16.17;10.87;;;10.20;99.90;;;;;;5012882;28;21289;-66
2023/04/09 06:05:12;;;;;;;16.33;11.97;;;10.20;99.90;;;;;;5014903;28;20263;-66
2023/04/09 06:07:39;;;;;;;16.50;11.47;;;10.20;99.90;;;;;;5017164;28;20197;-67
2023/04/09 06:10:06;;;;;;;15.00;11.00;;;10.20;99.90;;;;;;5012661;28;20599;-66
2023/04/09 06:12:36;;;;;;;15.50;11.10;;;10.20;99.90;;;;;;5015322;28;20215;-67
2023/04/09 06:15:03;;;;;;;16.00;10.87;;;10.10;99.90;;;;;;5014352;28;21047;-66
2023/04/09 06:17:29;;;;;;;14.73;10.60;;;10.20;99.90;;;;;;5010708;28;20427;-67
2023/04/09 06:19:54;;;;;;;17.90;11.83;;;10.10;99.90;;;;;;5017161;28;20866;-66
2023/04/09 06:22:20;;;;;;;16.50;11.17;;;10.20;99.90;;;;;;5015609;28;20189;-67
2023/04/09 06:24:45;;;;;;;18.60;13.37;;;10.20;99.90;;;;;;5014739;28;20195;-67
2023/04/09 06:27:11;;;;;;;15.47;10.80;;;10.20;99.90;;;;;;5011719;28;20250;-67
2023/04/09 06:29:37;;;;;;;16.17;11.70;;;10.20;99.90;;;;;;5013545;28;20177;-67
2023/04/09 06:32:02;;;;;;;15.87;11.37;;;10.30;99.90;;;;;;5011161;28;20193;-66
2023/04/09 06:34:28;;;;;;;16.67;11.07;;;10.30;99.90;;;;;;5009098;28;20203;-65
2023/04/09 06:36:54;;;;;;;16.20;11.30;;;10.40;99.90;;;;;;5009798;28;20532;-65
2023/04/09 06:39:20;;;;;;;14.30;11.27;;;10.50;99.90;;;;;;5014028;28;20197;-65
2023/04/09 06:41:46;;;;;;;15.00;11.90;;;10.60;99.90;;;;;;5010205;28;20467;-66
2023/04/09 06:44:12;;;;;;;14.00;10.60;;;10.70;99.90;;;;;;5009327;28;20658;-65
2023/04/09 06:46:37;;;;;;;14.90;11.57;;;10.80;99.90;;;;;;5015813;28;20442;-65
2023/04/09 06:49:03;;;;;;;14.60;11.90;;;10.80;99.90;;;;;;5011869;28;20582;-66
2023/04/09 06:51:28;;;;;;;16.07;12.20;;;10.90;99.90;;;;;;5014773;28;20211;-66
2023/04/09 06:53:54;;;;;;;14.97;12.00;;;10.90;99.90;;;;;;5007303;28;20639;-66
2023/04/09 06:56:20;;;;;;;16.23;12.23;;;10.90;99.90;;;;;;5016824;28;20193;-65
2023/04/09 06:58:46;;;;;;;18.97;12.40;;;10.90;99.90;;;;;;5016792;28;20691;-65
2023/04/09 07:01:11;;;;;;;15.80;12.33;;;10.90;99.90;;;;;;5022323;28;20345;-66
2023/04/09 07:03:37;;;;;;;16.00;13.00;;;10.90;99.90;;;;;;5020147;28;20212;-66
2023/04/09 07:06:03;;;;;;;14.90;12.03;;;10.90;99.90;;;;;;5007474;28;20189;-66
2023/04/09 07:08:28;;;;;;;15.70;12.30;;;11.00;99.90;;;;;;5014708;28;20203;-66
2023/04/09 07:10:54;;;;;;;17.60;13.17;;;10.90;99.90;;;;;;5009977;28;20747;-67
2023/04/09 07:13:20;;;;;;;16.73;13.27;;;10.90;99.90;;;;;;5011649;28;20651;-66
2023/04/09 07:15:45;;;;;;;16.27;12.27;;;11.00;99.90;;;;;;5016053;28;20203;-66
2023/04/09 07:18:11;;;;;;;16.60;12.37;;;11.00;99.90;;;;;;5012161;28;20311;-66
2023/04/09 07:20:37;;;;;;;16.33;11.93;;;11.00;99.90;;;;;;5007680;28;20205;-66
2023/04/09 07:23:02;;;;;;;16.73;12.80;;;11.10;99.90;;;;;;5014188;28;20317;-66
2023/04/09 07:25:28;;;;;;;18.53;12.10;;;11.10;99.90;;;;;;5011140;28;20185;-65
2023/04/09 07:27:53;;;;;;;14.67;12.40;;;11.10;99.90;;;;;;5013280;28;20290;-66
2023/04/09 07:30:19;;;;;;;14.07;12.53;;;11.10;99.90;;;;;;5011044;28;20467;-66
2023/04/09 07:32:46;;;;;;;18.30;14.40;;;11.20;99.90;;;;;;5011386;28;20200;-66
2023/04/09 07:35:11;;;;;;;16.07;12.33;;;11.20;99.90;;;;;;5011692;28;20475;-65
2023/04/09 07:37:37;;;;;;;16.50;13.23;;;11.20;99.90;;;;;;5014145;28;20517;-66
2023/04/09 07:40:03;;;;;;;17.17;13.40;;;11.30;99.90;;;;;;5010193;28;20215;-66
2023/04/09 07:42:29;;;;;;;19.13;13.17;;;11.30;99.90;;;;;;5014897;28;20188;-66
2023/04/09 07:44:55;;;;;;;20.50;15.90;;;11.40;99.90;;;;;;5007289;28;20192;-64
2023/04/09 07:47:22;;;;;;;17.23;12.70;;;11.40;99.90;;;;;;5009027;28;20447;-65
2023/04/09 07:49:48;;;;;;;20.63;15.40;;;11.40;99.90;;;;;;5012615;28;20435;-65
2023/04/09 07:52:13;;;;;;;16.07;13.10;;;11.50;99.90;;;;;;5006604;28;21932;-66
2023/04/09 07:54:39;;;;;;;16.77;13.07;;;11.50;99.90;;;;;;5010528;28;20185;-66
2023/04/09 07:57:05;;;;;;;16.80;14.33;;;11.60;99.90;;;;;;5015310;28;20701;-66
2023/04/09 07:59:31;;;;;;;19.23;14.47;;;11.60;99.90;;;;;;5007154;28;20217;-66
2023/04/09 08:01:57;;;;;;;19.40;14.63;;;11.70;99.90;;;;;;5013677;28;20526;-65
2023/04/09 08:04:23;;;;;;;19.67;14.40;;;11.70;99.90;;;;;;5014658;28;20544;-66
2023/04/09 08:06:49;;;;;;;15.60;13.10;;;11.80;99.90;;;;;;5008700;28;20451;-65
2023/04/09 08:09:20;;;;;;;17.20;13.30;;;11.80;99.90;;;;;;5009108;28;20618;-65
2023/04/09 08:11:46;;;;;;;19.43;15.63;;;11.90;99.90;;;;;;5007086;28;20525;-66
2023/04/09 08:14:12;;;;;;;16.10;12.73;;;11.90;99.90;;;;;;5008649;28;20453;-65
2023/04/09 08:16:40;;;;;;;16.23;13.60;;;12.00;99.90;;;;;;5012087;28;20618;-65
2023/04/09 08:19:07;;;;;;;16.73;13.23;;;12.00;99.90;;;;;;5019104;28;20447;-65
2023/04/09 08:21:32;;;;;;;15.90;13.33;;;12.10;99.90;;;;;;5014020;28;20454;-65
2023/04/09 08:24:03;;;;;;;13.67;11.53;;;12.10;99.90;;;;;;5004796;28;20489;-65
2023/04/09 08:26:29;;;;;;;18.83;13.00;;;12.20;99.90;;;;;;5009090;28;20181;-67
2023/04/09 08:28:54;;;;;;;15.10;12.37;;;12.20;99.90;;;;;;5008962;28;20432;-65
2023/04/09 08:31:20;;;;;;;17.30;12.70;;;12.30;99.90;;;;;;5010570;28;21151;-66
2023/04/09 08:33:46;;;;;;;16.70;13.77;;;12.40;99.90;;;;;;5010434;28;20189;-65
2023/04/09 08:36:11;;;;;;;14.70;12.30;;;12.40;99.90;;;;;;5011652;28;20200;-65
2023/04/09 08:38:37;;;;;;;14.93;12.70;;;12.50;99.90;;;;;;5009950;28;20192;-64
2023/04/09 08:41:03;;;;;;;15.53;12.80;;;12.50;99.90;;;;;;5012344;28;20213;-64
2023/04/09 08:43:30;;;;;;;15.67;12.63;;;12.60;99.90;;;;;;5010659;28;20291;-64
2023/04/09 08:45:58;;;;;;;13.67;12.10;;;12.60;99.90;;;;;;5011628;28;20189;-64
2023/04/09 08:48:24;;;;;;;14.30;12.00;;;12.70;99.90;;;;;;5012223;28;20952;-66
2023/04/09 08:50:50;;;;;;;13.83;12.30;;;12.70;99.90;;;;;;5015309;28;21034;-66
2023/04/09 08:53:16;;;;;;;15.00;12.80;;;12.80;99.90;;;;;;5011987;28;20474;-65
2023/04/09 08:55:45;;;;;;;14.00;12.50;;;12.80;99.90;;;;;;5007258;28;20448;-65
2023/04/09 08:58:10;;;;;;;14.70;12.03;;;12.90;99.90;;;;;;5013744;28;21194;-65
2023/04/09 09:00:36;;;;;;;13.43;11.97;;;12.90;99.90;;;;;;5010264;28;20459;-65
2023/04/09 09:03:11;;;;;;;15.80;13.20;;;13.00;99.90;;;;;;5007899;28;20216;-66
2023/04/09 09:05:41;;;;;;;14.83;12.07;;;13.10;99.90;;;;;;5008528;28;20455;-66
2023/04/09 09:08:09;;;;;;;13.53;11.20;;;13.10;99.90;;;;;;5011550;28;20435;-66
2023/04/09 09:10:39;;;;;;;12.83;11.10;;;13.20;99.90;;;;;;5007086;28;20853;-66
2023/04/09 09:13:23;;;;;;;13.50;10.43;;;13.20;99.90;;;;;;5006742;28;20436;-66
2023/04/09 09:16:10;;;;;;;9.27;8.33;;;13.20;99.90;;;;;;5011088;28;20935;-66
2023/04/09 09:18:39;;;;;;;12.20;10.03;;;13.30;99.90;;;;;;5006406;28;20939;-66
2023/04/09 09:21:15;;;;;;;9.17;8.17;;;13.30;99.90;;;;;;5005972;28;20562;-64
2023/04/09 09:23:44;;;;;;;16.10;10.87;;;13.40;99.90;;;;;;5005955;28;20825;-64
2023/04/09 09:26:24;;;;;;;10.60;9.10;;;13.60;99.90;;;;;;5006782;28;20526;-65
2023/04/09 09:28:50;;;;;;;9.97;8.90;;;13.80;99.90;;;;;;5010132;28;20556;-64
2023/04/09 09:31:17;;;;;;;11.60;10.23;;;13.90;99.90;;;;;;5010353;28;20473;-65
2023/04/09 09:33:43;;;;;;;10.10;7.97;;;14.10;99.90;;;;;;5009413;28;20454;-65
2023/04/09 09:36:09;;;;;;;9.60;8.30;;;14.30;99.90;;;;;;5007844;28;20440;-66
2023/04/09 09:38:55;;;;;;;8.73;7.83;;;14.60;99.90;;;;;;5009585;28;20466;-65
2023/04/09 09:41:22;;;;;;;9.33;7.63;;;14.80;99.90;;;;;;5007800;28;20471;-65
2023/04/09 09:43:48;;;;;;;5.50;4.90;;;15.10;99.90;;;;;;5003526;28;20474;-65
2023/04/09 09:46:15;;;;;;;6.17;5.53;;;15.20;97.70;;;;;;5008868;28;20474;-65
2023/04/09 09:48:41;;;;;;;5.67;5.17;;;15.40;96.10;;;;;;5010821;28;20514;-64
2023/04/09 09:51:11;;;;;;;9.37;6.93;;;15.50;93.50;;;;;;5001980;28;21067;-65
2023/04/09 09:53:38;;;;;;;7.97;7.00;;;15.60;92.80;;;;;;5003502;28;20436;-65
2023/04/09 09:56:05;;;;;;;13.73;9.40;;;15.80;93.00;;;;;;5011424;28;20795;-65
2023/04/09 09:58:40;;;;;;;8.57;7.67;;;15.90;93.70;;;;;;5015821;28;20530;-65
2023/04/09 10:01:12;;;;;;;9.70;8.70;;;16.00;94.20;;;;;;5011529;28;20521;-65
2023/04/09 10:03:41;;;;;;;31.33;10.23;;;16.20;94.40;;;;;;5007304;28;20478;-64
2023/04/09 10:06:07;;;;;;;21.13;8.60;;;16.20;94.50;;;;;;5010808;28;20498;-65
2023/04/09 10:08:36;;;;;;;10.10;9.03;;;16.20;94.40;;;;;;5007077;28;20516;-66
2023/04/09 10:11:04;;;;;;;9.07;8.17;;;16.30;94.70;;;;;;5008171;28;21147;-65
2023/04/09 10:13:46;;;;;;;9.30;8.40;;;16.40;94.70;;;;;;5006814;28;21062;-65
2023/04/09 10:16:13;;;;;;;9.10;8.20;;;16.50;94.80;;;;;;5008952;28;20914;-64
2023/04/09 10:18:41;;;;;;;9.17;8.27;;;16.60;94.70;;;;;;5011024;28;20479;-65
2023/04/09 10:21:30;;;;;;;8.37;7.33;;;16.60;93.90;;;;;;5008271;28;20464;-65
2023/04/09 10:23:56;;;;;;;8.20;7.40;;;16.80;94.00;;;;;;5009128;28;20507;-65
2023/04/09 10:26:26;;;;;;;8.40;7.60;;;16.80;93.60;;;;;;5007746;28;20501;-64
2023/04/09 10:29:07;;;;;;;9.40;8.13;;;16.90;93.50;;;;;;5014024;28;20469;-64
2023/04/09 10:31:46;;;;;;;8.33;7.50;;;17.00;93.20;;;;;;5006372;28;20570;-64
2023/04/09 10:34:19;;;;;;;8.33;7.53;;;17.00;92.30;;;;;;5010494;28;20449;-64
2023/04/09 10:36:50;;;;;;;7.63;6.83;;;17.10;91.30;;;;;;5006443;28;20442;-63
2023/04/09 10:39:16;;;;;;;9.00;8.10;;;16.90;87.60;;;;;;5017429;28;20947;-63
2023/04/09 10:41:43;;;;;;;9.30;8.40;;;17.00;89.40;;;;;;5024928;28;20446;-63
2023/04/09 10:44:34;;;;;;;8.20;7.40;;;17.10;90.00;;;;;;5024497;28;20480;-64
2023/04/09 10:47:02;;;;;;;8.27;7.40;;;17.10;90.30;;;;;;5010523;28;20474;-63
2023/04/09 10:49:37;;;;;;;7.67;6.97;;;17.20;90.40;;;;;;5012707;28;20431;-63
2023/04/09 10:52:03;;;;;;;6.30;5.40;;;17.10;89.50;;;;;;5012776;28;20502;-63
2023/04/09 10:54:32;;;;;;;4.90;4.50;;;17.40;87.30;;;;;;5019076;28;20443;-63
2023/04/09 10:57:07;;;;;;;5.53;5.03;;;17.40;77.40;;;;;;5020369;28;20430;-64
2023/04/09 10:59:34;;;;;;;5.50;5.00;;;17.50;78.50;;;;;;5017913;28;20450;-64
2023/04/09 11:02:00;;;;;;;5.53;5.03;;;17.60;77.90;;;;;;5015921;28;20542;-64
2023/04/09 11:04:44;;;;;;;6.00;5.40;;;17.70;75.50;;;;;;5017860;28;20974;-64
2023/04/09 11:07:11;;;;;;;6.10;5.60;;;17.70;73.20;;;;;;5017338;28;20211;-63
2023/04/09 11:09:36;;;;;;;6.63;5.97;;;17.80;73.90;;;;;;5019198;28;20470;-64
2023/04/09 11:12:02;;;;;;;5.53;4.90;;;17.90;73.90;;;;;;5014049;28;20435;-63
2023/04/09 11:14:28;;;;;;;5.60;5.10;;;18.10;73.40;;;;;;5014212;28;20185;-64
2023/04/09 11:16:54;;;;;;;6.20;5.20;;;18.30;72.20;;;;;;5018928;28;20192;-64
2023/04/09 11:19:20;;;;;;;6.40;4.90;;;18.40;70.20;;;;;;5018362;28;20181;-63
2023/04/09 11:21:47;;;;;;;5.10;4.70;;;18.40;68.50;;;;;;5012733;28;20478;-63
2023/04/09 11:24:13;;;;;;;5.93;5.33;;;18.40;68.00;;;;;;5019397;28;20482;-63
2023/04/09 11:26:38;;;;;;;5.60;5.03;;;18.40;67.70;;;;;;5018937;28;20443;-62
2023/04/09 11:29:08;;;;;;;5.90;5.40;;;18.40;67.50;;;;;;5015128;28;20274;-64
2023/04/09 11:31:35;;;;;;;6.80;5.40;;;18.30;67.30;;;;;;5018058;28;20196;-63
2023/04/09 11:34:01;;;;;;;5.23;4.77;;;18.20;66.70;;;;;;5018771;28;20487;-63
2023/04/09 11:36:27;;;;;;;4.83;4.40;;;17.90;64.30;;;;;;5021540;28;20435;-63
2023/04/09 11:38:54;;;;;;;5.57;5.07;;;18.10;66.80;;;;;;5016949;28;20455;-64
2023/04/09 11:41:36;;;;;;;5.20;4.70;;;18.40;66.70;;;;;;5016174;28;20197;-63
2023/04/09 11:44:03;;;;;;;6.20;5.60;;;18.60;66.50;;;;;;5021322;28;20482;-64
2023/04/09 11:46:34;;;;;;;6.40;5.83;;;18.60;64.90;;;;;;5020671;28;20484;-63
2023/04/09 11:49:00;;;;;;;6.30;5.27;;;18.70;64.60;;;;;;5012084;28;20426;-64
2023/04/09 11:51:27;;;;;;;6.60;6.00;;;18.80;65.00;;;;;;5020282;28;20438;-64
2023/04/09 11:53:53;;;;;;;7.90;7.00;;;19.00;64.90;;;;;;5014550;28;20602;-63
2023/04/09 11:56:19;;;;;;;14.43;9.97;;;19.00;63.10;;;;;;5023743;28;20988;-62
2023/04/09 11:58:46;;;;;;;8.50;7.37;;;19.20;63.30;;;;;;5018892;28;20569;-62
2023/04/09 12:01:12;;;;;;;6.83;6.13;;;19.10;62.10;;;;;;5021030;28;20477;-64
2023/04/09 12:03:38;;;;;;;7.13;6.43;;;18.80;61.30;;;;;;5022103;28;20471;-63
2023/04/09 12:06:05;;;;;;;5.90;5.40;;;18.70;61.80;;;;;;5021197;28;20577;-63
2023/04/09 12:08:34;;;;;;;5.93;5.33;;;18.70;62.00;;;;;;5016906;28;20185;-63
2023/04/09 12:11:13;;;;;;;5.80;5.30;;;18.60;61.90;;;;;;5018535;28;20497;-64
2023/04/09 12:13:41;;;;;;;4.90;4.50;;;18.70;62.20;;;;;;5023756;28;20411;-63
2023/04/09 12:16:09;;;;;;;5.27;4.77;;;18.90;62.10;;;;;;5017624;28;21220;-64
2023/04/09 12:18:38;;;;;;;5.93;5.33;;;19.40;62.00;;;;;;5010713;28;20448;-63
2023/04/09 12:21:05;;;;;;;5.57;5.07;;;19.80;60.80;;;;;;5021130;28;20466;-63
2023/04/09 12:23:32;;;;;;;5.57;5.07;;;19.90;59.80;;;;;;5018937;28;20844;-63
2023/04/09 12:26:01;;;;;;;6.63;5.97;;;20.00;59.40;;;;;;5020259;28;20455;-64
2023/04/09 12:28:27;;;;;;;5.53;5.00;;;20.20;57.40;;;;;;5017733;28;20419;-64
2023/04/09 12:30:53;;;;;;;5.50;5.00;;;20.30;57.80;;;;;;5014058;28;20514;-64
2023/04/09 12:33:20;;;;;;;5.13;4.70;;;20.20;57.30;;;;;;5017574;28;20434;-64
2023/04/09 12:35:46;;;;;;;5.27;4.77;;;21.20;58.30;;;;;;5021216;28;21070;-64
2023/04/09 12:38:12;;;;;;;5.97;5.07;;;21.90;56.80;;;;;;5016577;28;20581;-64